createdAt,value
2022-10-29T00:02:22.151Z,100960.72
2022-10-29T00:04:49.770Z,100971.22
2022-10-29T00:07:17.084Z,100967.28
2022-10-29T00:09:44.473Z,100969.59
2022-10-29T00:12:12.051Z,100966.75
2022-10-29T00:14:39.391Z,100971.56
2022-10-29T00:17:06.693Z,100969.97
2022-10-29T00:19:34.271Z,100969.72
2022-10-29T00:22:01.634Z,100969.34
2022-10-29T00:24:28.958Z,100965.53
2022-10-29T00:26:56.516Z,100964.03
2022-10-29T00:29:23.888Z,100965.53
2022-10-29T00:31:51.298Z,100971.38
2022-10-29T00:34:18.970Z,100963.22
2022-10-29T00:36:46.384Z,100973.09
2022-10-29T00:39:15.254Z,100972.44
2022-10-29T00:41:42.946Z,100975.00
2022-10-29T00:44:20.508Z,100974.66
2022-10-29T00:46:48.565Z,100974.41
2022-10-29T00:49:15.902Z,100970.94
2022-10-29T00:51:43.362Z,100966.44
2022-10-29T00:54:11.624Z,100968.78
2022-10-29T00:56:41.531Z,100973.56
2022-10-29T00:59:08.891Z,100960.53
2022-10-29T01:01:36.822Z,100958.94
2022-10-29T01:04:04.453Z,100955.56
2022-10-29T01:06:31.751Z,100958.69
2022-10-29T01:08:59.359Z,100953.44
2022-10-29T01:11:38.834Z,100943.56
2022-10-29T01:14:15.572Z,100941.87
2022-10-29T01:16:42.674Z,100948.66
2022-10-29T01:19:34.475Z,100942.00
2022-10-29T01:22:17.501Z,100935.75
2022-10-29T01:25:20.279Z,100927.09
2022-10-29T01:28:02.124Z,100929.16
2022-10-29T01:30:51.433Z,100926.78
2022-10-29T01:33:37.187Z,100929.03
2022-10-29T01:36:07.686Z,100921.81
2022-10-29T01:38:36.735Z,100928.41
2022-10-29T01:41:13.076Z,100916.97
2022-10-29T01:43:52.066Z,100913.22
2022-10-29T01:46:21.888Z,100906.12
2022-10-29T01:48:51.890Z,100898.37
2022-10-29T01:51:23.848Z,100914.94
2022-10-29T01:53:51.579Z,100902.34
2022-10-29T01:56:18.879Z,100903.28
2022-10-29T01:58:49.609Z,100897.91
2022-10-29T02:01:54.388Z,100901.91
2022-10-29T02:04:33.184Z,100894.09
2022-10-29T02:07:07.921Z,100896.53
2022-10-29T02:10:03.507Z,100893.19
2022-10-29T02:12:33.635Z,100900.09
2022-10-29T02:15:08.673Z,100909.94
2022-10-29T02:17:36.011Z,100908.84
2022-10-29T02:20:08.236Z,100903.12
2022-10-29T02:22:35.590Z,100902.94
2022-10-29T02:25:02.992Z,100906.41
2022-10-29T02:27:30.649Z,100891.44
2022-10-29T02:29:57.981Z,100890.94
2022-10-29T02:32:25.337Z,100900.84
2022-10-29T02:34:52.898Z,100896.25
2022-10-29T02:37:20.236Z,100905.84
2022-10-29T02:39:47.546Z,100904.63
2022-10-29T02:42:15.175Z,100914.59
2022-10-29T02:44:42.480Z,100906.00
2022-10-29T02:47:09.793Z,100893.81
2022-10-29T02:49:37.442Z,100895.47
2022-10-29T02:52:04.977Z,100899.31
2022-10-29T02:54:32.308Z,100891.72
2022-10-29T02:56:59.900Z,100884.19
2022-10-29T02:59:27.250Z,100886.75
2022-10-29T03:01:54.713Z,100889.03
2022-10-29T03:04:22.344Z,100889.69
2022-10-29T03:06:49.718Z,100882.34
2022-10-29T03:09:17.023Z,100886.91
2022-10-29T03:11:44.595Z,100887.91
2022-10-29T03:14:12.003Z,100889.75
2022-10-29T03:16:39.325Z,100885.88
2022-10-29T03:19:06.948Z,100890.28
2022-10-29T03:21:34.307Z,100896.66
2022-10-29T03:24:01.641Z,100886.22
2022-10-29T03:26:29.236Z,100884.09
2022-10-29T03:28:56.643Z,100882.66
2022-10-29T03:31:23.967Z,100893.97
2022-10-29T03:33:51.588Z,100884.56
2022-10-29T03:36:18.930Z,100882.66
2022-10-29T03:38:46.319Z,100883.38
2022-10-29T03:41:13.919Z,100873.31
2022-10-29T03:43:41.381Z,100877.53
2022-10-29T03:46:08.798Z,100879.88
2022-10-29T03:48:36.367Z,100891.59
2022-10-29T03:51:07.738Z,100888.50
2022-10-29T03:53:35.746Z,100881.94
2022-10-29T03:56:03.642Z,100881.78
2022-10-29T03:58:30.973Z,100878.09
2022-10-29T04:01:02.841Z,100876.00
2022-10-29T04:03:31.410Z,100883.09
2022-10-29T04:05:59.487Z,100883.31
2022-10-29T04:08:26.853Z,100881.41
2022-10-29T04:10:54.459Z,100877.37
2022-10-29T04:13:21.777Z,100883.75
2022-10-29T04:15:49.123Z,100891.59
2022-10-29T04:18:16.695Z,100887.50
2022-10-29T04:22:31.620Z,100893.16
2022-10-29T04:29:06.472Z,100891.22
2022-10-29T04:31:33.809Z,100886.22
2022-10-29T04:34:01.127Z,100888.53
2022-10-29T04:36:28.697Z,100889.16
2022-10-29T04:38:56.040Z,100887.44
2022-10-29T04:41:23.366Z,100891.59
2022-10-29T04:43:50.936Z,100893.25
2022-10-29T04:46:18.265Z,100888.66
2022-10-29T04:48:45.582Z,100883.94
2022-10-29T04:51:25.818Z,100890.56
2022-10-29T04:53:53.300Z,100878.91
2022-10-29T04:56:20.913Z,100882.41
2022-10-29T04:58:51.412Z,100882.41
2022-10-29T05:01:19.042Z,100897.13
2022-10-29T05:03:46.768Z,100896.88
2022-10-29T05:06:14.180Z,100896.81
2022-10-29T05:08:41.491Z,100890.19
2022-10-29T05:11:09.072Z,100894.78
2022-10-29T05:13:36.419Z,100894.91
2022-10-29T05:16:03.929Z,100897.97
2022-10-29T05:18:31.512Z,100899.38
2022-10-29T05:20:58.897Z,100899.62
2022-10-29T05:23:26.268Z,100889.94
2022-10-29T05:25:55.258Z,100885.41
2022-10-29T05:28:22.951Z,100895.22
2022-10-29T05:30:51.130Z,100900.34
2022-10-29T05:33:20.437Z,100893.38
2022-10-29T05:35:47.930Z,100891.06
2022-10-29T05:38:15.449Z,100889.69
2022-10-29T05:40:45.039Z,100889.69
2022-10-29T05:43:13.395Z,100895.63
2022-10-29T05:45:40.812Z,100900.47
2022-10-29T05:48:08.443Z,100891.59
2022-10-29T05:50:35.955Z,100903.16
2022-10-29T05:53:04.838Z,100897.91
2022-10-29T05:55:33.343Z,100890.81
2022-10-29T05:58:02.112Z,100887.22
2022-10-29T06:00:31.364Z,100888.63
2022-10-29T06:02:59.183Z,100892.22
2022-10-29T06:05:26.902Z,100884.34
2022-10-29T06:07:56.102Z,100882.47
2022-10-29T06:10:24.625Z,100882.03
2022-10-29T06:12:51.969Z,100870.38
2022-10-29T06:15:19.344Z,100874.03
2022-10-29T06:17:47.032Z,100886.50
2022-10-29T06:20:15.365Z,100890.00
2022-10-29T06:22:42.697Z,100893.56
2022-10-29T06:25:10.373Z,100897.22
2022-10-29T06:27:37.685Z,100895.44
2022-10-29T06:30:05.729Z,100892.28
2022-10-29T06:32:33.339Z,100906.25
2022-10-29T06:35:00.658Z,100900.22
2022-10-29T06:37:29.698Z,100898.75
2022-10-29T06:39:57.276Z,100901.66
2022-10-29T06:42:24.601Z,100905.28
2022-10-29T06:44:51.932Z,100903.06
2022-10-29T06:47:19.619Z,100904.66
2022-10-29T06:49:46.944Z,100911.50
2022-10-29T06:52:14.250Z,100928.22
2022-10-29T06:54:41.864Z,100921.50
2022-10-29T06:57:09.170Z,100905.34
2022-10-29T06:59:36.484Z,100896.25
2022-10-29T07:02:04.115Z,100888.59
2022-10-29T07:04:31.489Z,100886.91
2022-10-29T07:06:58.800Z,100891.41
2022-10-29T07:09:26.456Z,100892.22
2022-10-29T07:11:53.804Z,100899.22
2022-10-29T07:14:21.112Z,100904.66
2022-10-29T07:16:48.747Z,100907.50
2022-10-29T07:19:16.092Z,100909.84
2022-10-29T07:21:43.674Z,100914.87
2022-10-29T07:24:11.258Z,100913.06
2022-10-29T07:26:38.611Z,100912.47
2022-10-29T07:29:05.931Z,100910.28
2022-10-29T07:31:33.517Z,100903.66
2022-10-29T07:34:00.879Z,100915.66
2022-10-29T07:36:30.280Z,100927.19
2022-10-29T07:38:57.905Z,100931.81
2022-10-29T07:41:25.683Z,100932.28
2022-10-29T07:43:53.029Z,100926.09
2022-10-29T07:46:20.842Z,100912.63
2022-10-29T07:48:48.215Z,100896.81
2022-10-29T07:51:15.525Z,100905.31
2022-10-29T07:53:43.140Z,100910.09
2022-10-29T07:56:10.493Z,100909.94
2022-10-29T07:58:37.842Z,100915.84
2022-10-29T08:01:05.521Z,100910.28
2022-10-29T08:03:33.601Z,100903.03
2022-10-29T08:06:00.923Z,100906.19
2022-10-29T08:08:28.252Z,100913.94
2022-10-29T08:11:00.194Z,100930.97
2022-10-29T08:13:27.571Z,100922.44
2022-10-29T08:15:54.913Z,100905.13
2022-10-29T08:18:22.517Z,100901.06
2022-10-29T08:20:49.869Z,100915.09
2022-10-29T08:23:17.239Z,100911.91
2022-10-29T08:25:44.969Z,100911.28
2022-10-29T08:28:13.855Z,100908.50
2022-10-29T08:30:41.816Z,100903.66
2022-10-29T08:33:09.843Z,100900.69
2022-10-29T08:35:37.195Z,100911.63
2022-10-29T08:38:04.530Z,100912.38
2022-10-29T08:40:44.091Z,100922.69
2022-10-29T08:43:35.669Z,100925.66
2022-10-29T08:46:03.296Z,100932.34
2022-10-29T08:48:33.584Z,100925.81
2022-10-29T08:51:20.574Z,100915.72
2022-10-29T08:54:17.058Z,100914.09
2022-10-29T08:56:40.265Z,100909.44
2022-10-29T08:59:16.273Z,100917.69
2022-10-29T09:01:44.114Z,100900.38
2022-10-29T09:04:22.505Z,100895.88
2022-10-29T09:07:17.545Z,100891.00
2022-10-29T09:09:55.089Z,100893.66
2022-10-29T09:13:00.204Z,100890.16
2022-10-29T09:15:56.357Z,100895.41
2022-10-29T09:18:30.234Z,100904.09
2022-10-29T09:21:13.095Z,100896.38
2022-10-29T09:23:56.346Z,100894.00
2022-10-29T09:26:58.327Z,100890.97
2022-10-29T09:29:59.543Z,100881.56
2022-10-29T09:32:32.205Z,100892.69
2022-10-29T09:35:14.868Z,100896.03
2022-10-29T09:37:44.421Z,100890.50
2022-10-29T09:40:31.277Z,100895.16
2022-10-29T09:43:00.375Z,100898.66
2022-10-29T09:45:36.689Z,100900.97
2022-10-29T09:48:15.542Z,100899.56
2022-10-29T09:51:01.909Z,100890.78
2022-10-29T09:53:29.688Z,100878.59
2022-10-29T09:55:56.995Z,100870.78
2022-10-29T09:58:26.488Z,100860.59
2022-10-29T10:00:54.676Z,100858.31
2022-10-29T10:03:37.939Z,100872.16
2022-10-29T10:06:07.499Z,100869.22
2022-10-29T10:08:35.433Z,100864.41
2022-10-29T10:11:04.892Z,100876.84
2022-10-29T10:13:36.715Z,100879.50
2022-10-29T10:16:06.025Z,100871.09
2022-10-29T10:18:33.354Z,100868.78
2022-10-29T10:21:03.934Z,100873.56
2022-10-29T10:23:52.597Z,100865.22
2022-10-29T10:26:28.760Z,100868.00
2022-10-29T10:29:15.597Z,100869.53
2022-10-29T10:32:03.041Z,100861.75
2022-10-29T10:34:33.282Z,100863.22
2022-10-29T10:37:09.459Z,100865.72
2022-10-29T10:39:36.874Z,100864.16
2022-10-29T10:42:24.285Z,100864.34
2022-10-29T10:44:59.446Z,100863.81
2022-10-29T10:47:28.690Z,100856.28
2022-10-29T10:50:32.482Z,100851.03
2022-10-29T10:53:17.377Z,100847.34
2022-10-29T10:55:57.893Z,100840.31
2022-10-29T10:58:31.798Z,100845.28
2022-10-29T11:01:09.345Z,100832.81
2022-10-29T11:03:45.380Z,100835.25
2022-10-29T11:06:21.067Z,100841.16
2022-10-29T11:09:18.736Z,100835.78
2022-10-29T11:11:59.012Z,100832.38
2022-10-29T11:14:30.684Z,100826.97
2022-10-29T11:16:59.299Z,100822.44
2022-10-29T11:19:40.522Z,100820.91
2022-10-29T11:22:26.712Z,100817.09
2022-10-29T11:24:56.266Z,100818.03
2022-10-29T11:27:47.775Z,100817.47
2022-10-29T11:30:16.239Z,100825.59
2022-10-29T11:33:05.313Z,100820.06
2022-10-29T11:35:58.823Z,100817.38
2022-10-29T11:38:33.376Z,100815.06
2022-10-29T11:41:28.307Z,100799.37
2022-10-29T11:43:55.899Z,100799.44
2022-10-29T11:47:04.304Z,100799.66
2022-10-29T11:50:16.112Z,100787.66
2022-10-29T11:52:46.054Z,100784.62
2022-10-29T11:55:52.757Z,100788.03
2022-10-29T11:58:24.530Z,100785.44
2022-10-29T12:01:12.218Z,100780.50
2022-10-29T12:03:42.119Z,100780.16
2022-10-29T12:06:20.035Z,100790.91
2022-10-29T12:09:23.584Z,100792.34
2022-10-29T12:12:23.415Z,100780.19
2022-10-29T12:15:18.844Z,100785.50
2022-10-29T12:18:09.040Z,100780.34
2022-10-29T12:20:59.750Z,100782.75
2022-10-29T12:23:41.947Z,100784.34
2022-10-29T12:26:23.322Z,100787.22
2022-10-29T12:29:00.102Z,100788.41
2022-10-29T12:31:47.605Z,100777.47
2022-10-29T12:34:26.354Z,100766.56
2022-10-29T12:36:56.685Z,100760.97
2022-10-29T12:39:30.902Z,100754.91
2022-10-29T12:42:01.515Z,100762.44
2022-10-29T12:44:44.965Z,100745.66
2022-10-29T12:47:38.146Z,100741.06
2022-10-29T12:50:44.915Z,100738.53
2022-10-29T12:53:24.831Z,100737.12
2022-10-29T12:55:52.187Z,100729.75
2022-10-29T12:58:57.389Z,100731.97
2022-10-29T13:01:43.867Z,100733.06
2022-10-29T13:04:27.901Z,100726.44
2022-10-29T13:10:24.541Z,100732.63
2022-10-29T13:13:05.518Z,100736.91
2022-10-29T13:15:43.821Z,100729.94
2022-10-29T13:18:23.615Z,100737.50
2022-10-29T13:20:52.462Z,100728.63
2022-10-29T13:23:22.684Z,100729.66
2022-10-29T13:25:59.038Z,100738.34
2022-10-29T13:28:26.486Z,100747.53
2022-10-29T13:31:13.958Z,100728.63
2022-10-29T13:33:41.414Z,100733.69
2022-10-29T13:36:18.936Z,100718.91
2022-10-29T13:39:04.361Z,100728.28
2022-10-29T13:41:42.367Z,100728.47
2022-10-29T13:44:11.278Z,100733.31
2022-10-29T13:46:53.058Z,100731.91
2022-10-29T13:49:23.595Z,100724.38
2022-10-29T13:51:56.057Z,100728.19
2022-10-29T13:54:37.965Z,100712.66
2022-10-29T13:57:31.950Z,100711.16
2022-10-29T14:00:03.666Z,100717.75
2022-10-29T14:02:55.043Z,100719.69
2022-10-29T14:05:32.087Z,100715.53
2022-10-29T14:08:28.659Z,100710.16
2022-10-29T14:10:59.561Z,100707.09
2022-10-29T14:13:30.872Z,100703.50
2022-10-29T14:16:07.468Z,100706.16
2022-10-29T14:18:41.285Z,100712.47
2022-10-29T14:21:36.598Z,100717.25
2022-10-29T14:24:04.988Z,100717.66
2022-10-29T14:26:34.239Z,100717.91
2022-10-29T14:29:31.001Z,100715.75
2022-10-29T14:32:13.087Z,100713.50
2022-10-29T14:34:45.305Z,100730.66
2022-10-29T14:37:18.841Z,100710.63
2022-10-29T14:39:57.436Z,100720.03
2022-10-29T14:42:33.380Z,100722.63
2022-10-29T14:45:03.374Z,100706.44
2022-10-29T14:47:34.879Z,100702.19
2022-10-29T14:50:03.698Z,100706.69
2022-10-29T14:52:34.151Z,100709.19
2022-10-29T14:55:03.290Z,100716.03
2022-10-29T14:57:32.610Z,100720.03
2022-10-29T15:00:04.753Z,100719.38
2022-10-29T15:02:38.702Z,100723.66
2022-10-29T15:05:28.971Z,100711.16
2022-10-29T15:08:11.778Z,100702.34
2022-10-29T15:10:48.638Z,100712.59
2022-10-29T15:13:28.162Z,100704.84
2022-10-29T15:16:16.783Z,100696.03
2022-10-29T15:18:50.931Z,100695.72
2022-10-29T15:21:22.687Z,100690.16
2022-10-29T15:23:52.532Z,100694.91
2022-10-29T15:26:23.198Z,100683.72
2022-10-29T15:28:52.243Z,100679.19
2022-10-29T15:31:40.468Z,100674.56
2022-10-29T15:34:09.255Z,100673.63
2022-10-29T15:36:46.429Z,100679.09
2022-10-29T15:39:22.931Z,100674.00
2022-10-29T15:41:50.457Z,100679.53
2022-10-29T15:45:07.830Z,100681.66
2022-10-29T15:47:36.270Z,100682.41
2022-10-29T15:50:09.630Z,100675.66
2022-10-29T15:52:38.764Z,100681.75
2022-10-29T15:55:27.880Z,100685.34
2022-10-29T15:58:10.842Z,100674.44
2022-10-29T16:00:38.485Z,100685.53
2022-10-29T16:03:23.162Z,100703.22
2022-10-29T16:05:53.857Z,100709.56
2022-10-29T16:08:29.716Z,100720.44
2022-10-29T16:10:57.362Z,100711.41
2022-10-29T16:13:25.363Z,100711.31
2022-10-29T16:15:52.732Z,100697.47
2022-10-29T16:18:20.183Z,100692.59
2022-10-29T16:20:48.389Z,100688.69
2022-10-29T16:23:15.755Z,100689.44
2022-10-29T16:25:43.078Z,100684.81
2022-10-29T16:28:10.756Z,100698.78
2022-10-29T16:30:41.050Z,100689.81
2022-10-29T16:33:10.559Z,100691.47
2022-10-29T16:35:38.252Z,100693.78
2022-10-29T16:38:05.576Z,100687.00
2022-10-29T16:40:32.908Z,100687.13
2022-10-29T16:43:00.793Z,100685.53
2022-10-29T16:45:29.936Z,100681.22
2022-10-29T16:47:57.819Z,100675.19
2022-10-29T16:50:27.366Z,100679.72
2022-10-29T16:53:01.382Z,100675.75
2022-10-29T16:55:29.208Z,100675.06
2022-10-29T16:57:56.992Z,100674.28
2022-10-29T17:00:25.987Z,100673.31
2022-10-29T17:02:53.698Z,100672.25
2022-10-29T17:05:21.227Z,100682.88
2022-10-29T17:07:48.553Z,100675.56
2022-10-29T17:10:16.176Z,100672.22
2022-10-29T17:12:43.488Z,100663.06
2022-10-29T17:15:10.831Z,100673.88
2022-10-29T17:17:41.073Z,100681.22
2022-10-29T17:20:11.286Z,100684.72
2022-10-29T17:22:38.935Z,100682.66
2022-10-29T17:25:06.643Z,100677.81
2022-10-29T17:27:33.952Z,100682.59
2022-10-29T17:30:01.593Z,100681.09
2022-10-29T17:32:32.550Z,100668.09
2022-10-29T17:35:00.252Z,100666.06
2022-10-29T17:37:27.878Z,100673.81
2022-10-29T17:39:55.189Z,100663.41
2022-10-29T17:42:22.546Z,100668.47
2022-10-29T17:44:50.165Z,100659.12
2022-10-29T17:47:17.468Z,100662.44
2022-10-29T17:49:44.806Z,100671.41
2022-10-29T17:52:12.440Z,100667.25
2022-10-29T17:54:39.771Z,100671.22
2022-10-29T17:57:07.109Z,100677.22
2022-10-29T17:59:34.730Z,100688.84
2022-10-29T18:02:02.166Z,100687.84
2022-10-29T18:04:29.815Z,100677.09
2022-10-29T18:06:57.197Z,100682.75
2022-10-29T18:09:24.547Z,100686.50
2022-10-29T18:11:52.168Z,100683.22
2022-10-29T18:14:19.544Z,100672.78
2022-10-29T18:16:46.915Z,100671.88
2022-10-29T18:19:14.557Z,100683.25
2022-10-29T18:21:41.891Z,100684.34
2022-10-29T18:24:09.410Z,100685.59
2022-10-29T18:26:36.996Z,100673.81
2022-10-29T18:29:08.918Z,100672.06
2022-10-29T18:31:36.621Z,100679.56
2022-10-29T18:34:05.997Z,100675.31
2022-10-29T18:36:35.647Z,100668.06
2022-10-29T18:39:04.180Z,100675.28
2022-10-29T18:41:31.528Z,100672.41
2022-10-29T18:43:59.091Z,100672.06
2022-10-29T18:46:26.769Z,100667.34
2022-10-29T18:48:54.101Z,100665.56
2022-10-29T18:51:29.297Z,100662.25
2022-10-29T18:54:00.019Z,100659.00
2022-10-29T18:56:28.098Z,100670.87
2022-10-29T18:58:55.936Z,100656.88
2022-10-29T19:01:25.067Z,100652.72
2022-10-29T19:04:00.312Z,100644.31
2022-10-29T19:06:29.309Z,100645.31
2022-10-29T19:08:56.676Z,100643.38
2022-10-29T19:11:27.566Z,100644.88
2022-10-29T19:13:59.663Z,100641.28
2022-10-29T19:16:27.289Z,100646.84
2022-10-29T19:18:56.015Z,100638.78
2022-10-29T19:21:23.421Z,100642.41
2022-10-29T19:23:55.203Z,100643.09
2022-10-29T19:26:22.825Z,100630.63
2022-10-29T19:28:50.186Z,100620.47
2022-10-29T19:31:22.491Z,100624.91
2022-10-29T19:33:50.461Z,100621.03
2022-10-29T19:36:17.902Z,100621.03
2022-10-29T19:38:45.284Z,100627.28
2022-10-29T19:41:13.021Z,100626.75
2022-10-29T19:43:40.502Z,100642.09
2022-10-29T19:46:08.792Z,100643.47
2022-10-29T19:48:36.408Z,100637.88
2022-10-29T19:51:03.815Z,100628.62
2022-10-29T19:53:31.330Z,100637.91
2022-10-29T19:55:58.964Z,100630.00
2022-10-29T19:58:27.189Z,100631.84
2022-10-29T20:00:54.827Z,100634.06
2022-10-29T20:03:22.513Z,100621.47
2022-10-29T20:05:49.874Z,100625.31
2022-10-29T20:08:17.216Z,100626.94
2022-10-29T20:10:44.807Z,100624.78
2022-10-29T20:13:12.148Z,100621.50
2022-10-29T20:15:40.132Z,100613.53
2022-10-29T20:18:07.797Z,100617.78
2022-10-29T20:20:35.171Z,100614.13
2022-10-29T20:23:02.644Z,100613.06
2022-10-29T20:25:30.403Z,100611.22
2022-10-29T20:27:59.434Z,100614.78
2022-10-29T20:30:26.741Z,100617.63
2022-10-29T20:32:54.470Z,100613.50
2022-10-29T20:35:22.205Z,100616.13
2022-10-29T20:37:49.645Z,100616.59
2022-10-29T20:40:17.299Z,100623.25
2022-10-29T20:42:44.709Z,100626.50
2022-10-29T20:45:12.065Z,100615.47
2022-10-29T20:47:39.693Z,100625.00
2022-10-29T20:50:07.281Z,100624.53
2022-10-29T20:52:34.595Z,100629.06
2022-10-29T20:55:02.160Z,100636.56
2022-10-29T20:57:29.602Z,100628.25
2022-10-29T20:59:58.472Z,100625.75
2022-10-29T21:02:26.130Z,100617.16
2022-10-29T21:04:53.543Z,100618.16
2022-10-29T21:07:20.953Z,100620.19
2022-10-29T21:09:48.569Z,100626.94
2022-10-29T21:12:15.920Z,100622.53
2022-10-29T21:14:43.251Z,100618.34
2022-10-29T21:17:11.181Z,100617.72
2022-10-29T21:19:38.506Z,100625.16
2022-10-29T21:22:05.927Z,100624.06
2022-10-29T21:24:33.572Z,100628.34
2022-10-29T21:27:00.923Z,100629.59
2022-10-29T21:29:28.256Z,100625.75
2022-10-29T21:31:55.830Z,100632.12
2022-10-29T21:34:23.160Z,100622.50
2022-10-29T21:36:50.508Z,100618.66
2022-10-29T21:39:18.112Z,100617.22
2022-10-29T21:41:45.462Z,100628.50
2022-10-29T21:44:12.816Z,100626.28
2022-10-29T21:46:40.691Z,100624.44
2022-10-29T21:49:08.020Z,100625.47
2022-10-29T21:51:35.330Z,100627.88
2022-10-29T21:54:02.933Z,100623.16
2022-10-29T21:56:30.378Z,100630.56
2022-10-29T21:58:57.754Z,100630.47
2022-10-29T22:01:25.425Z,100642.53
2022-10-29T22:03:53.074Z,100631.53
2022-10-29T22:06:21.434Z,100625.34
2022-10-29T22:08:53.912Z,100621.53
2022-10-29T22:11:21.715Z,100615.44
2022-10-29T22:13:48.986Z,100610.47
2022-10-29T22:16:16.243Z,100604.03
2022-10-29T22:18:44.275Z,100618.81
2022-10-29T22:21:12.485Z,100618.72
2022-10-29T22:23:47.022Z,100618.25
2022-10-29T22:26:15.611Z,100619.00
2022-10-29T22:28:43.007Z,100622.41
2022-10-29T22:31:10.727Z,100615.69
2022-10-29T22:33:38.262Z,100619.09
2022-10-29T22:36:06.511Z,100612.06
2022-10-29T22:38:33.801Z,100612.06
2022-10-29T22:41:08.818Z,100602.34
2022-10-29T22:43:36.271Z,100607.44
2022-10-29T22:46:04.011Z,100603.94
2022-10-29T22:48:31.380Z,100602.06
2022-10-29T22:51:02.703Z,100599.59
2022-10-29T22:53:30.637Z,100597.09
2022-10-29T22:55:58.047Z,100592.19
2022-10-29T22:58:25.582Z,100594.41
2022-10-29T23:01:03.596Z,100580.44
2022-10-29T23:03:30.952Z,100580.44
2022-10-29T23:06:02.678Z,100579.41
2022-10-29T23:08:30.043Z,100577.41
2022-10-29T23:10:57.345Z,100581.28
2022-10-29T23:13:24.951Z,100575.53
2022-10-29T23:15:52.773Z,100583.06
2022-10-29T23:18:20.118Z,100575.56
2022-10-29T23:20:47.765Z,100576.81
2022-10-29T23:23:15.105Z,100575.75
2022-10-29T23:25:42.890Z,100580.53
2022-10-29T23:28:10.476Z,100583.25
2022-10-29T23:30:37.803Z,100583.72
2022-10-29T23:33:05.110Z,100591.47
2022-10-29T23:35:34.807Z,100573.75
2022-10-29T23:38:02.141Z,100582.09
2022-10-29T23:40:29.443Z,100582.22
2022-10-29T23:42:57.037Z,100570.31
2022-10-29T23:45:24.365Z,100567.84
2022-10-29T23:47:51.679Z,100575.97
2022-10-29T23:50:19.276Z,100574.44
2022-10-29T23:52:46.622Z,100566.72
2022-10-29T23:55:14.015Z,100568.53
2022-10-29T23:57:41.634Z,100557.53
